sensor_id;sensor_type;location;lat;lon;timestamp;P1;durP1;ratioP1;P2;durP2;ratioP2
52816;SDS011;38687;43.330;21.924;2024-01-07T00:01:51;13.40;;;7.45;;
52816;SDS011;38687;43.330;21.924;2024-01-07T00:04:17;14.32;;;9.80;;
52816;SDS011;38687;43.330;21.924;2024-01-07T00:06:43;17.73;;;10.60;;
52816;SDS011;38687;43.330;21.924;2024-01-07T00:09:10;11.15;;;9.23;;
52816;SDS011;38687;43.330;21.924;2024-01-07T00:11:36;9.65;;;8.35;;
52816;SDS011;38687;43.330;21.924;2024-01-07T00:14:01;8.85;;;4.78;;
52816;SDS011;38687;43.330;21.924;2024-01-07T00:16:30;11.88;;;7.97;;
52816;SDS011;38687;43.330;21.924;2024-01-07T00:18:58;10.55;;;7.53;;
52816;SDS011;38687;43.330;21.924;2024-01-07T00:21:24;11.70;;;9.55;;
52816;SDS011;38687;43.330;21.924;2024-01-07T00:23:49;6.95;;;4.85;;
52816;SDS011;38687;43.330;21.924;2024-01-07T00:26:15;11.95;;;7.70;;
52816;SDS011;38687;43.330;21.924;2024-01-07T00:28:43;9.50;;;6.75;;
52816;SDS011;38687;43.330;21.924;2024-01-07T00:31:10;8.02;;;5.72;;
52816;SDS011;38687;43.330;21.924;2024-01-07T00:33:37;7.82;;;6.95;;
52816;SDS011;38687;43.330;21.924;2024-01-07T00:36:02;9.45;;;3.85;;
52816;SDS011;38687;43.330;21.924;2024-01-07T00:38:31;9.55;;;7.07;;
52816;SDS011;38687;43.330;21.924;2024-01-07T00:40:59;12.75;;;8.57;;
52816;SDS011;38687;43.330;21.924;2024-01-07T00:43:25;6.70;;;4.68;;
52816;SDS011;38687;43.330;21.924;2024-01-07T00:45:59;11.57;;;7.55;;
52816;SDS011;38687;43.330;21.924;2024-01-07T00:48:24;5.00;;;3.33;;
52816;SDS011;38687;43.330;21.924;2024-01-07T00:50:50;10.50;;;8.88;;
52816;SDS011;38687;43.330;21.924;2024-01-07T00:53:15;10.68;;;8.65;;
52816;SDS011;38687;43.330;21.924;2024-01-07T00:55:44;9.68;;;7.85;;
52816;SDS011;38687;43.330;21.924;2024-01-07T00:58:09;7.15;;;4.65;;
52816;SDS011;38687;43.330;21.924;2024-01-07T01:00:35;10.43;;;7.53;;
52816;SDS011;38687;43.330;21.924;2024-01-07T01:03:00;8.15;;;4.05;;
52816;SDS011;38687;43.330;21.924;2024-01-07T01:05:26;10.60;;;7.53;;
52816;SDS011;38687;43.330;21.924;2024-01-07T01:07:51;11.65;;;7.53;;
52816;SDS011;38687;43.330;21.924;2024-01-07T01:10:17;9.15;;;7.07;;
52816;SDS011;38687;43.330;21.924;2024-01-07T01:12:43;8.35;;;5.22;;
52816;SDS011;38687;43.330;21.924;2024-01-07T01:15:09;8.18;;;6.93;;
52816;SDS011;38687;43.330;21.924;2024-01-07T01:17:35;7.30;;;6.13;;
52816;SDS011;38687;43.330;21.924;2024-01-07T01:20:00;10.13;;;7.90;;
52816;SDS011;38687;43.330;21.924;2024-01-07T01:22:25;5.82;;;3.53;;
52816;SDS011;38687;43.330;21.924;2024-01-07T01:24:51;12.40;;;9.40;;
52816;SDS011;38687;43.330;21.924;2024-01-07T01:27:18;7.30;;;6.25;;
52816;SDS011;38687;43.330;21.924;2024-01-07T01:29:43;7.35;;;4.13;;
52816;SDS011;38687;43.330;21.924;2024-01-07T01:32:09;10.88;;;7.55;;
52816;SDS011;38687;43.330;21.924;2024-01-07T01:34:35;10.63;;;7.53;;
52816;SDS011;38687;43.330;21.924;2024-01-07T01:37:00;9.98;;;7.50;;
52816;SDS011;38687;43.330;21.924;2024-01-07T01:39:29;12.98;;;7.93;;
52816;SDS011;38687;43.330;21.924;2024-01-07T01:41:57;11.35;;;7.00;;
52816;SDS011;38687;43.330;21.924;2024-01-07T01:44:23;11.10;;;8.63;;
52816;SDS011;38687;43.330;21.924;2024-01-07T01:46:48;7.35;;;4.60;;
52816;SDS011;38687;43.330;21.924;2024-01-07T01:49:14;5.32;;;3.13;;
52816;SDS011;38687;43.330;21.924;2024-01-07T01:51:39;8.35;;;7.18;;
52816;SDS011;38687;43.330;21.924;2024-01-07T01:54:05;8.98;;;5.25;;
52816;SDS011;38687;43.330;21.924;2024-01-07T01:56:31;8.05;;;3.08;;
52816;SDS011;38687;43.330;21.924;2024-01-07T01:58:58;10.57;;;5.20;;
52816;SDS011;38687;43.330;21.924;2024-01-07T02:01:24;11.52;;;7.78;;
52816;SDS011;38687;43.330;21.924;2024-01-07T02:03:49;8.02;;;3.95;;
52816;SDS011;38687;43.330;21.924;2024-01-07T02:06:16;13.15;;;8.68;;
52816;SDS011;38687;43.330;21.924;2024-01-07T02:08:42;13.82;;;9.00;;
52816;SDS011;38687;43.330;21.924;2024-01-07T02:11:14;12.85;;;9.02;;
52816;SDS011;38687;43.330;21.924;2024-01-07T02:13:46;11.68;;;8.10;;
52816;SDS011;38687;43.330;21.924;2024-01-07T02:16:12;9.05;;;4.68;;
52816;SDS011;38687;43.330;21.924;2024-01-07T02:18:38;10.63;;;7.28;;
52816;SDS011;38687;43.330;21.924;2024-01-07T02:21:18;9.30;;;5.72;;
52816;SDS011;38687;43.330;21.924;2024-01-07T02:23:43;8.45;;;6.03;;
52816;SDS011;38687;43.330;21.924;2024-01-07T02:26:09;6.43;;;5.57;;
52816;SDS011;38687;43.330;21.924;2024-01-07T02:28:34;6.97;;;5.47;;
52816;SDS011;38687;43.330;21.924;2024-01-07T02:31:00;7.53;;;5.43;;
52816;SDS011;38687;43.330;21.924;2024-01-07T02:33:25;6.78;;;5.68;;
52816;SDS011;38687;43.330;21.924;2024-01-07T02:35:51;3.65;;;2.53;;
52816;SDS011;38687;43.330;21.924;2024-01-07T02:38:16;5.80;;;5.07;;
52816;SDS011;38687;43.330;21.924;2024-01-07T02:40:42;6.93;;;4.80;;
52816;SDS011;38687;43.330;21.924;2024-01-07T02:43:07;5.93;;;5.18;;
52816;SDS011;38687;43.330;21.924;2024-01-07T02:45:33;5.22;;;4.72;;
52816;SDS011;38687;43.330;21.924;2024-01-07T02:47:58;6.43;;;4.65;;
52816;SDS011;38687;43.330;21.924;2024-01-07T02:50:24;6.13;;;4.97;;
52816;SDS011;38687;43.330;21.924;2024-01-07T02:52:49;6.45;;;4.85;;
52816;SDS011;38687;43.330;21.924;2024-01-07T02:55:15;2.85;;;2.30;;
52816;SDS011;38687;43.330;21.924;2024-01-07T02:57:40;6.30;;;4.40;;
52816;SDS011;38687;43.330;21.924;2024-01-07T03:00:09;5.53;;;4.68;;
52816;SDS011;38687;43.330;21.924;2024-01-07T03:02:35;7.32;;;5.18;;
52816;SDS011;38687;43.330;21.924;2024-01-07T03:05:01;5.68;;;4.93;;
52816;SDS011;38687;43.330;21.924;2024-01-07T03:07:27;6.93;;;5.28;;
52816;SDS011;38687;43.330;21.924;2024-01-07T03:09:52;5.35;;;4.85;;
52816;SDS011;38687;43.330;21.924;2024-01-07T03:12:17;7.85;;;5.40;;
52816;SDS011;38687;43.330;21.924;2024-01-07T03:14:43;5.97;;;3.33;;
52816;SDS011;38687;43.330;21.924;2024-01-07T03:17:11;6.68;;;5.22;;
52816;SDS011;38687;43.330;21.924;2024-01-07T03:19:43;6.63;;;5.97;;
52816;SDS011;38687;43.330;21.924;2024-01-07T03:22:15;10.35;;;7.10;;
52816;SDS011;38687;43.330;21.924;2024-01-07T03:24:41;3.63;;;2.65;;
52816;SDS011;38687;43.330;21.924;2024-01-07T03:27:07;8.45;;;6.03;;
52816;SDS011;38687;43.330;21.924;2024-01-07T03:29:32;6.30;;;5.70;;
52816;SDS011;38687;43.330;21.924;2024-01-07T03:31:58;7.50;;;6.25;;
52816;SDS011;38687;43.330;21.924;2024-01-07T03:34:23;6.70;;;4.90;;
52816;SDS011;38687;43.330;21.924;2024-01-07T03:36:49;6.00;;;4.72;;
52816;SDS011;38687;43.330;21.924;2024-01-07T03:39:14;7.97;;;5.55;;
52816;SDS011;38687;43.330;21.924;2024-01-07T03:41:39;8.25;;;5.07;;
52816;SDS011;38687;43.330;21.924;2024-01-07T03:44:05;6.20;;;3.38;;
52816;SDS011;38687;43.330;21.924;2024-01-07T03:46:30;6.20;;;5.32;;
52816;SDS011;38687;43.330;21.924;2024-01-07T03:48:56;7.38;;;6.00;;
52816;SDS011;38687;43.330;21.924;2024-01-07T03:51:21;7.43;;;6.22;;
52816;SDS011;38687;43.330;21.924;2024-01-07T03:53:46;8.95;;;5.88;;
52816;SDS011;38687;43.330;21.924;2024-01-07T03:56:15;7.63;;;6.43;;
52816;SDS011;38687;43.330;21.924;2024-01-07T03:58:43;8.65;;;6.55;;
52816;SDS011;38687;43.330;21.924;2024-01-07T04:01:09;8.27;;;6.28;;
52816;SDS011;38687;43.330;21.924;2024-01-07T04:03:34;9.48;;;7.05;;
52816;SDS011;38687;43.330;21.924;2024-01-07T04:06:00;8.75;;;6.22;;
52816;SDS011;38687;43.330;21.924;2024-01-07T04:08:25;8.80;;;6.40;;
52816;SDS011;38687;43.330;21.924;2024-01-07T04:10:51;9.13;;;6.68;;
52816;SDS011;38687;43.330;21.924;2024-01-07T04:13:16;9.00;;;6.57;;
52816;SDS011;38687;43.330;21.924;2024-01-07T04:15:44;8.68;;;6.65;;
52816;SDS011;38687;43.330;21.924;2024-01-07T04:18:10;8.32;;;6.78;;
52816;SDS011;38687;43.330;21.924;2024-01-07T04:20:38;8.73;;;6.88;;
52816;SDS011;38687;43.330;21.924;2024-01-07T04:23:04;11.45;;;9.25;;
52816;SDS011;38687;43.330;21.924;2024-01-07T04:25:29;9.05;;;6.85;;
52816;SDS011;38687;43.330;21.924;2024-01-07T04:27:55;8.77;;;5.60;;
52816;SDS011;38687;43.330;21.924;2024-01-07T04:30:20;8.63;;;6.78;;
52816;SDS011;38687;43.330;21.924;2024-01-07T04:32:45;7.72;;;6.30;;
52816;SDS011;38687;43.330;21.924;2024-01-07T04:35:11;8.80;;;6.40;;
52816;SDS011;38687;43.330;21.924;2024-01-07T04:37:37;7.82;;;6.97;;
52816;SDS011;38687;43.330;21.924;2024-01-07T04:40:02;9.40;;;8.40;;
52816;SDS011;38687;43.330;21.924;2024-01-07T04:42:28;16.73;;;10.70;;
52816;SDS011;38687;43.330;21.924;2024-01-07T04:44:53;14.55;;;8.82;;
52816;SDS011;38687;43.330;21.924;2024-01-07T04:47:29;11.20;;;9.43;;
52816;SDS011;38687;43.330;21.924;2024-01-07T04:50:00;13.48;;;10.15;;
52816;SDS011;38687;43.330;21.924;2024-01-07T04:52:26;10.25;;;7.80;;
52816;SDS011;38687;43.330;21.924;2024-01-07T04:54:52;9.88;;;4.38;;
52816;SDS011;38687;43.330;21.924;2024-01-07T04:57:20;10.95;;;7.40;;
52816;SDS011;38687;43.330;21.924;2024-01-07T04:59:46;12.02;;;8.75;;
52816;SDS011;38687;43.330;21.924;2024-01-07T05:02:12;10.75;;;8.40;;
52816;SDS011;38687;43.330;21.924;2024-01-07T05:04:38;10.23;;;8.40;;
52816;SDS011;38687;43.330;21.924;2024-01-07T05:07:06;12.00;;;8.65;;
52816;SDS011;38687;43.330;21.924;2024-01-07T05:09:32;7.75;;;4.88;;
52816;SDS011;38687;43.330;21.924;2024-01-07T05:11:58;11.95;;;9.13;;
52816;SDS011;38687;43.330;21.924;2024-01-07T05:14:23;9.90;;;8.90;;
52816;SDS011;38687;43.330;21.924;2024-01-07T05:16:49;10.55;;;9.00;;
52816;SDS011;38687;43.330;21.924;2024-01-07T05:19:14;16.98;;;10.93;;
52816;SDS011;38687;43.330;21.924;2024-01-07T05:21:40;12.77;;;9.73;;
52816;SDS011;38687;43.330;21.924;2024-01-07T05:24:05;9.55;;;7.35;;
52816;SDS011;38687;43.330;21.924;2024-01-07T05:26:31;10.00;;;7.68;;
52816;SDS011;38687;43.330;21.924;2024-01-07T05:28:56;11.60;;;8.18;;
52816;SDS011;38687;43.330;21.924;2024-01-07T05:31:21;12.65;;;10.18;;
52816;SDS011;38687;43.330;21.924;2024-01-07T05:33:47;14.88;;;12.27;;
52816;SDS011;38687;43.330;21.924;2024-01-07T05:36:12;16.35;;;13.75;;
52816;SDS011;38687;43.330;21.924;2024-01-07T05:38:38;14.43;;;8.55;;
52816;SDS011;38687;43.330;21.924;2024-01-07T05:41:04;18.58;;;9.07;;
52816;SDS011;38687;43.330;21.924;2024-01-07T05:43:30;19.48;;;15.70;;
52816;SDS011;38687;43.330;21.924;2024-01-07T05:45:55;20.00;;;11.45;;
52816;SDS011;38687;43.330;21.924;2024-01-07T05:48:21;17.27;;;9.80;;
52816;SDS011;38687;43.330;21.924;2024-01-07T05:50:50;17.83;;;11.73;;
52816;SDS011;38687;43.330;21.924;2024-01-07T05:53:16;21.50;;;12.45;;
52816;SDS011;38687;43.330;21.924;2024-01-07T05:55:45;22.88;;;19.58;;
52816;SDS011;38687;43.330;21.924;2024-01-07T05:58:10;21.27;;;11.82;;
52816;SDS011;38687;43.330;21.924;2024-01-07T06:00:36;23.48;;;19.63;;
52816;SDS011;38687;43.330;21.924;2024-01-07T06:03:01;29.15;;;12.90;;
52816;SDS011;38687;43.330;21.924;2024-01-07T06:05:30;29.88;;;15.85;;
52816;SDS011;38687;43.330;21.924;2024-01-07T06:07:56;31.10;;;23.83;;
52816;SDS011;38687;43.330;21.924;2024-01-07T06:10:21;26.50;;;14.25;;
52816;SDS011;38687;43.330;21.924;2024-01-07T06:12:46;38.08;;;17.52;;
52816;SDS011;38687;43.330;21.924;2024-01-07T06:15:12;32.65;;;15.35;;
52816;SDS011;38687;43.330;21.924;2024-01-07T06:17:37;26.17;;;14.25;;
52816;SDS011;38687;43.330;21.924;2024-01-07T06:20:03;39.25;;;31.02;;
52816;SDS011;38687;43.330;21.924;2024-01-07T06:22:32;62.40;;;51.00;;
52816;SDS011;38687;43.330;21.924;2024-01-07T06:24:57;55.75;;;30.40;;
52816;SDS011;38687;43.330;21.924;2024-01-07T06:27:23;68.40;;;57.75;;
52816;SDS011;38687;43.330;21.924;2024-01-07T06:29:48;48.92;;;24.48;;
52816;SDS011;38687;43.330;21.924;2024-01-07T06:32:14;40.65;;;22.90;;
52816;SDS011;38687;43.330;21.924;2024-01-07T06:34:39;37.90;;;20.90;;
52816;SDS011;38687;43.330;21.924;2024-01-07T06:37:05;51.85;;;41.55;;
52816;SDS011;38687;43.330;21.924;2024-01-07T06:39:32;58.05;;;47.08;;
52816;SDS011;38687;43.330;21.924;2024-01-07T06:41:59;67.25;;;51.80;;
52816;SDS011;38687;43.330;21.924;2024-01-07T06:44:24;67.50;;;52.33;;
52816;SDS011;38687;43.330;21.924;2024-01-07T06:46:50;67.70;;;56.05;;
52816;SDS011;38687;43.330;21.924;2024-01-07T06:49:15;55.67;;;46.85;;
52816;SDS011;38687;43.330;21.924;2024-01-07T06:51:41;52.30;;;29.02;;
52816;SDS011;38687;43.330;21.924;2024-01-07T06:54:06;49.47;;;25.38;;
52816;SDS011;38687;43.330;21.924;2024-01-07T06:56:31;58.17;;;45.30;;
52816;SDS011;38687;43.330;21.924;2024-01-07T06:58:57;71.80;;;56.60;;
52816;SDS011;38687;43.330;21.924;2024-01-07T07:01:25;74.63;;;42.88;;
52816;SDS011;38687;43.330;21.924;2024-01-07T07:03:51;66.53;;;42.25;;
52816;SDS011;38687;43.330;21.924;2024-01-07T07:06:16;56.72;;;49.05;;
52816;SDS011;38687;43.330;21.924;2024-01-07T07:08:42;53.97;;;28.52;;
52816;SDS011;38687;43.330;21.924;2024-01-07T07:11:07;58.20;;;33.22;;
52816;SDS011;38687;43.330;21.924;2024-01-07T07:13:33;59.33;;;50.17;;
52816;SDS011;38687;43.330;21.924;2024-01-07T07:15:58;62.78;;;52.17;;
52816;SDS011;38687;43.330;21.924;2024-01-07T07:18:24;87.35;;;70.45;;
52816;SDS011;38687;43.330;21.924;2024-01-07T07:20:50;90.85;;;68.15;;
52816;SDS011;38687;43.330;21.924;2024-01-07T07:23:15;88.38;;;69.90;;
52816;SDS011;38687;43.330;21.924;2024-01-07T07:25:41;96.25;;;49.47;;
52816;SDS011;38687;43.330;21.924;2024-01-07T07:28:12;71.35;;;39.25;;
52816;SDS011;38687;43.330;21.924;2024-01-07T07:30:44;74.47;;;60.60;;
52816;SDS011;38687;43.330;21.924;2024-01-07T07:33:12;86.30;;;44.08;;
52816;SDS011;38687;43.330;21.924;2024-01-07T07:35:39;75.88;;;42.05;;
52816;SDS011;38687;43.330;21.924;2024-01-07T07:38:05;123.68;;;97.28;;
52816;SDS011;38687;43.330;21.924;2024-01-07T07:40:31;82.55;;;66.35;;
52816;SDS011;38687;43.330;21.924;2024-01-07T07:42:57;62.65;;;54.22;;
52816;SDS011;38687;43.330;21.924;2024-01-07T07:45:22;53.33;;;31.42;;
52816;SDS011;38687;43.330;21.924;2024-01-07T07:47:48;83.93;;;45.97;;
52816;SDS011;38687;43.330;21.924;2024-01-07T07:50:13;95.10;;;81.00;;
52816;SDS011;38687;43.330;21.924;2024-01-07T07:52:39;88.97;;;72.75;;
52816;SDS011;38687;43.330;21.924;2024-01-07T07:55:04;56.30;;;49.05;;
52816;SDS011;38687;43.330;21.924;2024-01-07T07:57:32;50.25;;;28.77;;
52816;SDS011;38687;43.330;21.924;2024-01-07T08:00:00;50.35;;;31.15;;
52816;SDS011;38687;43.330;21.924;2024-01-07T08:02:26;68.53;;;56.95;;
52816;SDS011;38687;43.330;21.924;2024-01-07T08:04:52;72.07;;;61.75;;
52816;SDS011;38687;43.330;21.924;2024-01-07T08:07:17;70.20;;;60.13;;
52816;SDS011;38687;43.330;21.924;2024-01-07T08:09:43;60.55;;;33.63;;
52816;SDS011;38687;43.330;21.924;2024-01-07T08:12:08;56.75;;;49.45;;
52816;SDS011;38687;43.330;21.924;2024-01-07T08:14:34;49.00;;;42.30;;
52816;SDS011;38687;43.330;21.924;2024-01-07T08:16:59;36.67;;;21.10;;
52816;SDS011;38687;43.330;21.924;2024-01-07T08:19:24;42.88;;;35.60;;
52816;SDS011;38687;43.330;21.924;2024-01-07T08:21:50;40.08;;;33.95;;
52816;SDS011;38687;43.330;21.924;2024-01-07T08:24:15;25.85;;;17.25;;
52816;SDS011;38687;43.330;21.924;2024-01-07T08:26:41;41.10;;;32.80;;
52816;SDS011;38687;43.330;21.924;2024-01-07T08:29:06;51.47;;;40.17;;
52816;SDS011;38687;43.330;21.924;2024-01-07T08:31:32;63.78;;;55.97;;
52816;SDS011;38687;43.330;21.924;2024-01-07T08:33:58;47.55;;;40.78;;
52816;SDS011;38687;43.330;21.924;2024-01-07T08:36:23;43.38;;;38.80;;
52816;SDS011;38687;43.330;21.924;2024-01-07T08:38:49;48.90;;;29.70;;
52816;SDS011;38687;43.330;21.924;2024-01-07T08:41:17;64.25;;;51.40;;
52816;SDS011;38687;43.330;21.924;2024-01-07T08:43:43;76.53;;;64.13;;
52816;SDS011;38687;43.330;21.924;2024-01-07T08:46:10;70.97;;;59.00;;
52816;SDS011;38687;43.330;21.924;2024-01-07T08:48:36;62.15;;;52.78;;
52816;SDS011;38687;43.330;21.924;2024-01-07T08:51:01;63.13;;;53.50;;
52816;SDS011;38687;43.330;21.924;2024-01-07T08:53:28;65.50;;;56.10;;
52816;SDS011;38687;43.330;21.924;2024-01-07T08:55:54;62.83;;;53.65;;
52816;SDS011;38687;43.330;21.924;2024-01-07T08:58:19;64.20;;;55.97;;
52816;SDS011;38687;43.330;21.924;2024-01-07T09:00:45;101.38;;;83.55;;
52816;SDS011;38687;43.330;21.924;2024-01-07T09:03:10;76.47;;;48.90;;
52816;SDS011;38687;43.330;21.924;2024-01-07T09:05:36;113.57;;;99.57;;
52816;SDS011;38687;43.330;21.924;2024-01-07T09:08:02;154.35;;;132.85;;
52816;SDS011;38687;43.330;21.924;2024-01-07T09:10:27;107.57;;;95.88;;
52816;SDS011;38687;43.330;21.924;2024-01-07T09:12:53;84.22;;;73.78;;
52816;SDS011;38687;43.330;21.924;2024-01-07T09:15:18;91.22;;;76.35;;
52816;SDS011;38687;43.330;21.924;2024-01-07T09:17:45;97.60;;;82.72;;
52816;SDS011;38687;43.330;21.924;2024-01-07T09:20:11;106.70;;;89.18;;
52816;SDS011;38687;43.330;21.924;2024-01-07T09:22:37;91.13;;;54.50;;
52816;SDS011;38687;43.330;21.924;2024-01-07T09:25:03;122.28;;;102.10;;
52816;SDS011;38687;43.330;21.924;2024-01-07T09:27:29;111.45;;;94.05;;
52816;SDS011;38687;43.330;21.924;2024-01-07T09:29:55;145.32;;;111.18;;
52816;SDS011;38687;43.330;21.924;2024-01-07T09:32:20;128.63;;;99.38;;
52816;SDS011;38687;43.330;21.924;2024-01-07T09:34:46;106.38;;;81.82;;
52816;SDS011;38687;43.330;21.924;2024-01-07T09:37:11;73.75;;;56.78;;
52816;SDS011;38687;43.330;21.924;2024-01-07T09:39:40;68.78;;;58.72;;
52816;SDS011;38687;43.330;21.924;2024-01-07T09:42:12;67.28;;;56.65;;
52816;SDS011;38687;43.330;21.924;2024-01-07T09:44:40;84.68;;;68.10;;
52816;SDS011;38687;43.330;21.924;2024-01-07T09:47:07;85.97;;;70.60;;
52816;SDS011;38687;43.330;21.924;2024-01-07T09:49:35;67.60;;;57.65;;
52816;SDS011;38687;43.330;21.924;2024-01-07T09:52:01;55.38;;;29.55;;
52816;SDS011;38687;43.330;21.924;2024-01-07T09:54:29;57.95;;;48.00;;
52816;SDS011;38687;43.330;21.924;2024-01-07T09:57:01;50.20;;;41.67;;
52816;SDS011;38687;43.330;21.924;2024-01-07T09:59:28;48.95;;;41.80;;
52816;SDS011;38687;43.330;21.924;2024-01-07T10:01:54;54.60;;;48.15;;
52816;SDS011;38687;43.330;21.924;2024-01-07T10:04:20;69.40;;;58.13;;
52816;SDS011;38687;43.330;21.924;2024-01-07T10:06:46;71.03;;;58.90;;
52816;SDS011;38687;43.330;21.924;2024-01-07T10:09:11;62.72;;;53.80;;
52816;SDS011;38687;43.330;21.924;2024-01-07T10:11:38;66.53;;;56.53;;
52816;SDS011;38687;43.330;21.924;2024-01-07T10:14:04;61.35;;;53.92;;
52816;SDS011;38687;43.330;21.924;2024-01-07T10:16:30;69.75;;;60.83;;
52816;SDS011;38687;43.330;21.924;2024-01-07T10:18:57;88.90;;;76.97;;
52816;SDS011;38687;43.330;21.924;2024-01-07T10:21:23;71.32;;;59.08;;
52816;SDS011;38687;43.330;21.924;2024-01-07T10:23:48;93.45;;;51.90;;
52816;SDS011;38687;43.330;21.924;2024-01-07T10:26:15;82.97;;;73.00;;
52816;SDS011;38687;43.330;21.924;2024-01-07T10:28:40;73.95;;;62.28;;
52816;SDS011;38687;43.330;21.924;2024-01-07T10:31:06;90.75;;;77.45;;
52816;SDS011;38687;43.330;21.924;2024-01-07T10:33:31;101.40;;;88.50;;
52816;SDS011;38687;43.330;21.924;2024-01-07T10:36:01;125.68;;;107.22;;
52816;SDS011;38687;43.330;21.924;2024-01-07T10:38:31;104.65;;;88.57;;
52816;SDS011;38687;43.330;21.924;2024-01-07T10:40:59;97.93;;;80.18;;
52816;SDS011;38687;43.330;21.924;2024-01-07T10:43:24;93.07;;;78.45;;
52816;SDS011;38687;43.330;21.924;2024-01-07T10:45:56;104.65;;;86.53;;
52816;SDS011;38687;43.330;21.924;2024-01-07T10:48:30;106.15;;;89.97;;
52816;SDS011;38687;43.330;21.924;2024-01-07T10:50:58;120.68;;;100.68;;
52816;SDS011;38687;43.330;21.924;2024-01-07T10:53:25;130.13;;;109.13;;
52816;SDS011;38687;43.330;21.924;2024-01-07T10:56:00;117.15;;;100.53;;
52816;SDS011;38687;43.330;21.924;2024-01-07T10:58:35;108.40;;;90.13;;
52816;SDS011;38687;43.330;21.924;2024-01-07T11:01:01;80.80;;;71.53;;
52816;SDS011;38687;43.330;21.924;2024-01-07T11:06:10;112.00;;;93.40;;
52816;SDS011;38687;43.330;21.924;2024-01-07T11:08:43;82.43;;;71.15;;
52816;SDS011;38687;43.330;21.924;2024-01-07T11:13:41;68.57;;;59.67;;
52816;SDS011;38687;43.330;21.924;2024-01-07T11:16:07;80.68;;;70.53;;
52816;SDS011;38687;43.330;21.924;2024-01-07T11:18:39;88.28;;;77.97;;
52816;SDS011;38687;43.330;21.924;2024-01-07T11:21:26;96.32;;;79.80;;
52816;SDS011;38687;43.330;21.924;2024-01-07T11:23:52;88.78;;;74.38;;
52816;SDS011;38687;43.330;21.924;2024-01-07T11:26:37;81.32;;;67.50;;
52816;SDS011;38687;43.330;21.924;2024-01-07T11:29:09;82.50;;;68.55;;
52816;SDS011;38687;43.330;21.924;2024-01-07T11:34:04;57.75;;;48.03;;
52816;SDS011;38687;43.330;21.924;2024-01-07T11:36:30;58.95;;;49.88;;
52816;SDS011;38687;43.330;21.924;2024-01-07T11:38:58;54.40;;;47.85;;
52816;SDS011;38687;43.330;21.924;2024-01-07T11:41:24;50.05;;;42.20;;
52816;SDS011;38687;43.330;21.924;2024-01-07T11:43:55;51.25;;;45.38;;
52816;SDS011;38687;43.330;21.924;2024-01-07T11:46:29;49.88;;;44.42;;
52816;SDS011;38687;43.330;21.924;2024-01-07T11:48:58;52.13;;;42.45;;
52816;SDS011;38687;43.330;21.924;2024-01-07T11:51:27;47.47;;;42.20;;
52816;SDS011;38687;43.330;21.924;2024-01-07T11:53:54;50.17;;;42.65;;
52816;SDS011;38687;43.330;21.924;2024-01-07T11:56:19;46.67;;;40.53;;
52816;SDS011;38687;43.330;21.924;2024-01-07T11:58:45;48.67;;;43.35;;
52816;SDS011;38687;43.330;21.924;2024-01-07T12:01:10;50.45;;;42.75;;
52816;SDS011;38687;43.330;21.924;2024-01-07T12:03:36;46.40;;;41.22;;
52816;SDS011;38687;43.330;21.924;2024-01-07T12:06:02;42.33;;;36.65;;
52816;SDS011;38687;43.330;21.924;2024-01-07T12:08:29;57.67;;;47.83;;
52816;SDS011;38687;43.330;21.924;2024-01-07T12:10:56;46.10;;;39.00;;
52816;SDS011;38687;43.330;21.924;2024-01-07T12:13:23;38.72;;;31.35;;
52816;SDS011;38687;43.330;21.924;2024-01-07T12:15:49;28.52;;;25.25;;
52816;SDS011;38687;43.330;21.924;2024-01-07T12:18:15;29.15;;;24.27;;
52816;SDS011;38687;43.330;21.924;2024-01-07T12:20:40;36.40;;;28.80;;
52816;SDS011;38687;43.330;21.924;2024-01-07T12:23:09;26.27;;;22.02;;
52816;SDS011;38687;43.330;21.924;2024-01-07T12:25:38;23.60;;;19.85;;
52816;SDS011;38687;43.330;21.924;2024-01-07T12:28:06;21.95;;;18.23;;
52816;SDS011;38687;43.330;21.924;2024-01-07T12:30:31;21.92;;;17.20;;
52816;SDS011;38687;43.330;21.924;2024-01-07T12:32:57;18.45;;;15.77;;
52816;SDS011;38687;43.330;21.924;2024-01-07T12:35:25;19.15;;;16.52;;
52816;SDS011;38687;43.330;21.924;2024-01-07T12:37:52;26.17;;;22.13;;
52816;SDS011;38687;43.330;21.924;2024-01-07T12:40:17;14.98;;;12.60;;
52816;SDS011;38687;43.330;21.924;2024-01-07T12:42:45;27.08;;;23.63;;
52816;SDS011;38687;43.330;21.924;2024-01-07T12:45:11;31.45;;;26.45;;
52816;SDS011;38687;43.330;21.924;2024-01-07T12:47:39;34.92;;;29.40;;
52816;SDS011;38687;43.330;21.924;2024-01-07T12:50:07;20.30;;;16.63;;
52816;SDS011;38687;43.330;21.924;2024-01-07T12:52:36;22.73;;;19.52;;
52816;SDS011;38687;43.330;21.924;2024-01-07T12:55:03;12.68;;;9.52;;
52816;SDS011;38687;43.330;21.924;2024-01-07T12:57:29;14.30;;;11.80;;
52816;SDS011;38687;43.330;21.924;2024-01-07T12:59:54;14.57;;;12.95;;
52816;SDS011;38687;43.330;21.924;2024-01-07T13:02:20;19.58;;;11.98;;
52816;SDS011;38687;43.330;21.924;2024-01-07T13:04:45;11.35;;;9.23;;
52816;SDS011;38687;43.330;21.924;2024-01-07T13:07:11;14.85;;;12.23;;
52816;SDS011;38687;43.330;21.924;2024-01-07T13:09:36;14.13;;;11.13;;
52816;SDS011;38687;43.330;21.924;2024-01-07T13:12:02;13.68;;;9.52;;
52816;SDS011;38687;43.330;21.924;2024-01-07T13:14:29;11.27;;;10.07;;
52816;SDS011;38687;43.330;21.924;2024-01-07T13:16:54;16.45;;;14.75;;
52816;SDS011;38687;43.330;21.924;2024-01-07T13:19:20;14.10;;;10.43;;
52816;SDS011;38687;43.330;21.924;2024-01-07T13:21:46;10.75;;;8.38;;
52816;SDS011;38687;43.330;21.924;2024-01-07T13:24:11;14.57;;;11.20;;
52816;SDS011;38687;43.330;21.924;2024-01-07T13:26:37;13.02;;;11.02;;
52816;SDS011;38687;43.330;21.924;2024-01-07T13:29:02;12.50;;;9.30;;
52816;SDS011;38687;43.330;21.924;2024-01-07T13:31:28;18.00;;;12.02;;
52816;SDS011;38687;43.330;21.924;2024-01-07T13:33:54;16.00;;;13.63;;
52816;SDS011;38687;43.330;21.924;2024-01-07T13:36:20;48.60;;;38.15;;
52816;SDS011;38687;43.330;21.924;2024-01-07T13:38:45;23.20;;;18.50;;
52816;SDS011;38687;43.330;21.924;2024-01-07T13:41:15;19.80;;;15.63;;
52816;SDS011;38687;43.330;21.924;2024-01-07T13:43:41;86.45;;;51.72;;
52816;SDS011;38687;43.330;21.924;2024-01-07T13:46:06;26.15;;;20.75;;
52816;SDS011;38687;43.330;21.924;2024-01-07T13:48:32;24.20;;;18.73;;
52816;SDS011;38687;43.330;21.924;2024-01-07T13:50:57;36.05;;;30.65;;
52816;SDS011;38687;43.330;21.924;2024-01-07T13:53:23;11.20;;;7.60;;
52816;SDS011;38687;43.330;21.924;2024-01-07T13:55:50;10.93;;;7.57;;
52816;SDS011;38687;43.330;21.924;2024-01-07T13:58:16;17.50;;;14.77;;
52816;SDS011;38687;43.330;21.924;2024-01-07T14:00:41;21.52;;;15.98;;
52816;SDS011;38687;43.330;21.924;2024-01-07T14:03:07;17.38;;;11.18;;
52816;SDS011;38687;43.330;21.924;2024-01-07T14:05:32;47.67;;;29.75;;
52816;SDS011;38687;43.330;21.924;2024-01-07T14:07:57;62.90;;;46.30;;
52816;SDS011;38687;43.330;21.924;2024-01-07T14:10:24;45.83;;;33.22;;
52816;SDS011;38687;43.330;21.924;2024-01-07T14:12:49;14.05;;;10.68;;
52816;SDS011;38687;43.330;21.924;2024-01-07T14:15:15;13.40;;;10.10;;
52816;SDS011;38687;43.330;21.924;2024-01-07T14:17:42;9.57;;;7.40;;
52816;SDS011;38687;43.330;21.924;2024-01-07T14:20:09;8.73;;;7.82;;